Lake Clark National Park, AK

2:17 AM AKDT on August 31, 2014 (GMT -0800)
Sparrevohn | Change Station
CLOSE
Current Station
Airport
Location: Sparrevohn,
Elevation: 1588 ft
Nearby Weather Stations

Elev 1588 ft 61.10 °N, 155.57 °W | Updated 22 minutes ago

Partly Cloudy
Partly Cloudy
42 °F
Feels Like 35 °F
N
10
Wind Variable Wind from NNE

Today
High -- | Low -- °F
--% Chance of Precip.
Yesterday
High -- | Low -- °F
Precip. -- in
7:10 AM 9:24 PM
Waxing Crescent, 29% visible
Pressure 29.72 in
Visibility 10.0 miles
Clouds Few 24000 ft
Windchill 35 °F
Dew Point 28 °F
Humidity 60%
Rainfall 0.00 in
Snow Depth Not available.
UV 0 out of 12
Pollen Not available.
Air Quality Not available.
Flu Activity Not available.
METAR PASV 310955Z AUTO 02009KT 10SM FEW240 05/M02 A2969 RMK AO2 SLP062 T00531020

More Conditions Fewer Conditions

Pressure 29.72 in
Visibility 10.0 miles
Clouds Few 24000 ft
Windchill 35 °F
Dew Point 28 °F
Humidity 60%
Rainfall 0.00 in
Snow Depth Not available.
UV 0 out of 12
Pollen Not available.
Air Quality Not available.
Flu Activity Not available.
METAR PASV 310955Z AUTO 02009KT 10SM FEW240 05/M02 A2969 RMK AO2 SLP062 T00531020

More Conditions Fewer Conditions

10-Day Weather Forecast

Almanac

Astronomy

Aug. 31, 2014 Rise Set
Actual Time 7:10 AM AKDT 9:24 PM AKDT
Civil Twilight 6:24 AM AKDT 10:10 PM AKDT
Nautical Twilight 5:24 AM AKDT 11:09 PM AKDT
Astronomical Twilight 4:03 AM AKDT 12:27 AM AKDT
Moon 2:46 PM AKDT 11:05 PM AKDT
Length of Visible Light 15h 45m
Length of Day
14h 14m
Tomorrow will be 5m 27s shorter.
Waxing Crescent, 29% of the Moon is Illuminated
Today
Waxing Crescent
Sep 2
First Quarter
Sep 8
Full
Sep 15
Last Quarter
Sep 24
New

Today's Extremes

State Highs State Lows

Community

WunderPhotos

Upload Photos

1,748,834 photos uploaded!

Nearby

Snow Depth

Station Depth Elevation
Mcneil Canyon 1 in 1320 ft
Port Graham 0 in 300 ft
MF Bradley River 2 in 2300 ft
Cooper Lake 22 in 1200 ft
Point Mackenzie 1 in 200 ft

Earthquake Activity

City Distance Mag. Time & Date
No recent earthquake activity has been reported nearby.
Minimum magnitude displayed is 2.5.

Coastal Water Temperatures

Place Temperature
No Stations Reporting

Nearby Weather Stations